createdAt,value
2023-01-19T00:01:00.925Z,91.20
2023-01-19T00:04:44.503Z,91.30
2023-01-19T00:08:28.205Z,91.30
2023-01-19T00:12:11.594Z,91.40
2023-01-19T00:15:55.649Z,91.40
2023-01-19T00:19:38.750Z,91.40
2023-01-19T00:23:21.576Z,91.40
2023-01-19T00:27:07.553Z,91.50
2023-01-19T00:30:51.516Z,91.60
2023-01-19T00:34:39.868Z,91.60
2023-01-19T00:38:23.636Z,91.60
2023-01-19T00:42:24.376Z,91.60
2023-01-19T00:46:06.602Z,91.60
2023-01-19T00:49:49.297Z,91.70
2023-01-19T00:53:32.923Z,91.70
2023-01-19T00:57:16.594Z,91.70
2023-01-19T01:01:06.023Z,91.80
2023-01-19T01:04:55.341Z,91.90
2023-01-19T01:08:38.328Z,91.80
2023-01-19T01:12:21.876Z,91.70
2023-01-19T01:16:05.853Z,91.70
2023-01-19T01:19:48.332Z,91.70
2023-01-19T01:23:30.611Z,91.60
2023-01-19T01:27:22.458Z,91.60
2023-01-19T01:31:04.748Z,91.70
2023-01-19T01:34:46.771Z,91.70
2023-01-19T01:38:29.829Z,91.70
2023-01-19T01:42:17.908Z,91.70
2023-01-19T01:46:00.169Z,91.90
2023-01-19T01:49:42.582Z,91.80
2023-01-19T01:53:24.968Z,91.80
2023-01-19T01:57:13.039Z,91.80
2023-01-19T02:01:14.378Z,91.80
2023-01-19T02:05:04.900Z,91.70
2023-01-19T02:09:12.090Z,91.80
2023-01-19T02:13:14.273Z,91.70
2023-01-19T02:16:59.026Z,91.60
2023-01-19T02:20:45.806Z,91.60
2023-01-19T02:24:29.390Z,91.60
2023-01-19T02:28:11.808Z,90.90
2023-01-19T02:31:55.992Z,91.00
2023-01-19T02:35:41.591Z,91.10
2023-01-19T02:39:27.156Z,91.10
2023-01-19T02:43:10.773Z,91.20
2023-01-19T02:46:57.054Z,91.30
2023-01-19T02:50:46.886Z,91.30
2023-01-19T02:54:47.394Z,91.30
2023-01-19T02:58:29.592Z,91.40
2023-01-19T03:02:19.933Z,91.50
2023-01-19T03:06:28.248Z,91.70
2023-01-19T03:10:32.837Z,91.70
2023-01-19T03:14:18.361Z,91.70
2023-01-19T03:18:01.095Z,91.80
2023-01-19T03:21:45.833Z,91.80
2023-01-19T03:25:30.997Z,91.80
2023-01-19T03:29:14.635Z,91.80
2023-01-19T03:33:07.532Z,91.80
2023-01-19T03:36:52.963Z,91.80
2023-01-19T03:40:37.612Z,91.80
2023-01-19T03:44:21.165Z,91.80
2023-01-19T03:48:03.519Z,91.80
2023-01-19T03:51:46.033Z,91.80
2023-01-19T03:55:28.435Z,91.90
2023-01-19T03:59:10.511Z,91.90
2023-01-19T04:02:52.603Z,91.90
2023-01-19T04:06:35.535Z,91.90
2023-01-19T04:10:21.371Z,91.90
2023-01-19T04:14:07.462Z,91.90
2023-01-19T04:17:50.855Z,91.90
2023-01-19T04:21:35.942Z,91.90
2023-01-19T04:25:17.798Z,91.90
2023-01-19T04:28:59.958Z,91.80
2023-01-19T04:32:41.851Z,91.90
2023-01-19T04:36:23.897Z,91.90
2023-01-19T04:40:08.404Z,91.90
2023-01-19T04:43:54.445Z,91.90
2023-01-19T04:47:37.734Z,92.00
2023-01-19T04:51:20.021Z,92.00
2023-01-19T04:55:03.270Z,92.00
2023-01-19T04:58:46.458Z,92.10
2023-01-19T05:02:28.654Z,92.10
2023-01-19T05:06:10.662Z,92.10
2023-01-19T05:09:52.768Z,92.10
2023-01-19T05:13:36.405Z,92.10
2023-01-19T05:17:19.717Z,92.10
2023-01-19T05:21:02.477Z,92.20
2023-01-19T05:24:44.315Z,92.20
2023-01-19T05:28:26.746Z,92.30
2023-01-19T05:32:08.645Z,92.30
2023-01-19T05:35:51.223Z,92.30
2023-01-19T05:39:33.871Z,92.30
2023-01-19T05:43:16.730Z,92.30
2023-01-19T05:46:58.728Z,92.30
2023-01-19T05:50:40.950Z,92.40
2023-01-19T05:54:23.456Z,92.40
2023-01-19T05:58:07.140Z,92.40
2023-01-19T06:01:49.061Z,92.50
2023-01-19T06:05:31.636Z,92.50
2023-01-19T06:09:13.606Z,92.50
2023-01-19T06:12:55.497Z,92.50
2023-01-19T06:16:39.439Z,92.50
2023-01-19T06:20:22.714Z,92.60
2023-01-19T06:24:06.089Z,92.50
2023-01-19T06:27:48.438Z,92.60
2023-01-19T06:31:32.608Z,92.60
2023-01-19T06:35:17.387Z,92.60
2023-01-19T06:38:59.385Z,92.60
2023-01-19T06:42:42.226Z,92.70
2023-01-19T06:46:24.044Z,92.70
2023-01-19T06:50:06.237Z,92.70
2023-01-19T06:53:48.270Z,92.70
2023-01-19T06:57:30.139Z,92.70
2023-01-19T07:01:14.484Z,92.80
2023-01-19T07:04:57.869Z,92.80
2023-01-19T07:08:40.757Z,92.80
2023-01-19T07:12:24.647Z,92.90
2023-01-19T07:16:08.096Z,92.90
2023-01-19T07:19:52.588Z,93.00
2023-01-19T07:23:38.149Z,93.00
2023-01-19T07:27:20.289Z,93.10
2023-01-19T07:31:03.996Z,93.10
2023-01-19T07:34:46.157Z,93.20
2023-01-19T07:38:28.587Z,93.20
2023-01-19T07:42:13.165Z,93.20
2023-01-19T07:46:02.536Z,93.20
2023-01-19T07:49:48.814Z,93.20
2023-01-19T07:53:32.446Z,93.20
2023-01-19T07:57:14.572Z,93.20
2023-01-19T08:00:58.219Z,93.20
2023-01-19T08:04:40.394Z,93.30
2023-01-19T08:08:31.768Z,93.30
2023-01-19T08:12:18.431Z,93.30
2023-01-19T08:16:01.701Z,93.30
2023-01-19T08:19:43.629Z,93.30
2023-01-19T08:23:25.560Z,93.30
2023-01-19T08:27:10.072Z,93.40
2023-01-19T08:30:56.704Z,93.40
2023-01-19T08:34:38.815Z,93.40
2023-01-19T08:38:20.925Z,93.40
2023-01-19T08:42:11.675Z,93.40
2023-01-19T08:45:54.047Z,93.40
2023-01-19T08:49:37.432Z,93.40
2023-01-19T08:53:23.296Z,93.40
2023-01-19T08:57:06.148Z,93.40
2023-01-19T09:00:52.773Z,93.50
2023-01-19T09:04:35.596Z,93.50
2023-01-19T09:08:17.718Z,93.60
2023-01-19T09:11:59.884Z,93.60
2023-01-19T09:15:42.570Z,93.60
2023-01-19T09:19:27.922Z,93.60
2023-01-19T09:23:14.840Z,93.50
2023-01-19T09:26:57.754Z,93.60
2023-01-19T09:30:40.564Z,93.60
2023-01-19T09:34:23.746Z,93.50
2023-01-19T09:38:07.622Z,93.60
2023-01-19T09:41:56.623Z,93.70
2023-01-19T09:45:48.169Z,93.90
2023-01-19T09:49:46.267Z,94.00
2023-01-19T09:53:41.663Z,94.00
2023-01-19T09:57:27.547Z,94.00
2023-01-19T10:01:18.695Z,93.80
2023-01-19T10:05:06.744Z,93.70
2023-01-19T10:08:57.969Z,93.40
2023-01-19T10:12:40.246Z,93.50
2023-01-19T10:16:52.002Z,93.40
2023-01-19T10:20:36.959Z,93.10
2023-01-19T10:24:26.589Z,93.10
2023-01-19T10:28:18.241Z,93.10
2023-01-19T10:32:20.150Z,93.20
2023-01-19T10:36:05.716Z,93.30
2023-01-19T10:39:52.282Z,93.90
2023-01-19T10:43:34.135Z,94.10
2023-01-19T10:47:19.611Z,94.20
2023-01-19T10:51:02.783Z,94.40
2023-01-19T10:54:44.897Z,94.60
2023-01-19T10:58:28.610Z,94.60
2023-01-19T11:02:20.791Z,94.60
2023-01-19T11:06:15.979Z,94.50
2023-01-19T11:10:16.379Z,94.40
2023-01-19T11:14:10.230Z,94.20
2023-01-19T11:17:53.735Z,93.80
2023-01-19T11:21:35.572Z,93.20
2023-01-19T11:25:26.926Z,92.80
2023-01-19T11:29:16.814Z,91.90
2023-01-19T11:32:58.772Z,91.00
2023-01-19T11:36:47.933Z,89.80
2023-01-19T11:40:32.354Z,89.30
2023-01-19T11:44:29.502Z,89.70
2023-01-19T11:48:18.287Z,90.40
2023-01-19T11:52:22.999Z,91.40
2023-01-19T11:56:12.274Z,92.10
2023-01-19T11:59:54.540Z,92.20
2023-01-19T12:03:55.633Z,91.50
2023-01-19T12:07:41.470Z,90.80
2023-01-19T12:11:26.706Z,89.70
2023-01-19T12:15:27.808Z,88.60
2023-01-19T12:19:22.626Z,87.60
2023-01-19T12:23:26.467Z,86.50
2023-01-19T12:27:20.519Z,86.00
2023-01-19T12:31:03.702Z,85.40
2023-01-19T12:39:22.535Z,85.00
2023-01-19T12:43:06.056Z,84.90
2023-01-19T12:46:55.216Z,84.90
2023-01-19T12:50:38.115Z,84.60
2023-01-19T12:54:27.676Z,84.30
2023-01-19T12:58:23.283Z,83.90
2023-01-19T13:06:49.256Z,83.20
2023-01-19T13:10:51.391Z,82.80
2023-01-19T13:14:37.468Z,82.90
2023-01-19T13:27:04.415Z,82.30
2023-01-19T13:31:11.306Z,81.70
2023-01-19T13:35:03.891Z,81.70
2023-01-19T13:43:37.867Z,81.30
2023-01-19T13:47:53.419Z,81.60
2023-01-19T13:51:36.127Z,81.30
2023-01-19T13:55:21.266Z,81.10
2023-01-19T13:59:26.796Z,81.30
2023-01-19T14:03:16.510Z,81.70
2023-01-19T14:07:07.371Z,81.80
2023-01-19T14:10:53.001Z,81.90
2023-01-19T14:14:42.344Z,82.00
2023-01-19T14:18:57.343Z,82.00
2023-01-19T14:22:48.851Z,81.50
2023-01-19T14:26:49.219Z,80.40
2023-01-19T14:30:32.922Z,80.10
2023-01-19T14:34:33.988Z,80.30
2023-01-19T14:38:16.232Z,80.20
2023-01-19T14:41:59.797Z,80.10
2023-01-19T14:45:51.132Z,79.50
2023-01-19T14:49:35.925Z,79.20
2023-01-19T14:53:21.702Z,78.80
2023-01-19T14:57:07.006Z,78.40
2023-01-19T15:00:50.391Z,78.70
2023-01-19T15:04:32.917Z,79.80
2023-01-19T15:08:27.158Z,80.60
2023-01-19T15:12:10.980Z,81.80
2023-01-19T15:15:53.291Z,83.40
2023-01-19T15:19:36.397Z,85.00
2023-01-19T15:23:19.529Z,86.00
2023-01-19T15:27:02.694Z,86.90
2023-01-19T15:30:45.095Z,87.60
2023-01-19T15:34:27.345Z,88.20
2023-01-19T15:38:09.881Z,88.50
2023-01-19T15:41:53.354Z,88.90
2023-01-19T15:45:48.142Z,89.20
2023-01-19T15:49:32.691Z,89.40
2023-01-19T15:53:16.092Z,89.70
2023-01-19T16:01:03.963Z,90.00
2023-01-19T16:04:49.016Z,90.20
2023-01-19T16:08:32.109Z,90.40
2023-01-19T16:12:27.065Z,90.40
2023-01-19T16:16:24.528Z,90.50
2023-01-19T16:24:13.740Z,90.70
2023-01-19T16:27:58.920Z,90.80
2023-01-19T16:39:58.490Z,91.10
2023-01-19T16:48:08.641Z,91.10
2023-01-19T16:51:55.165Z,91.10
2023-01-19T17:00:03.731Z,91.40
2023-01-19T17:03:50.491Z,91.40
2023-01-19T17:07:47.460Z,91.50
2023-01-19T17:19:29.626Z,91.80
2023-01-19T17:23:18.145Z,91.70
2023-01-19T17:39:20.790Z,91.80
2023-01-19T17:43:19.425Z,91.80
2023-01-19T17:51:15.936Z,91.80
2023-01-19T17:55:06.613Z,91.80
2023-01-19T18:02:55.789Z,91.80
2023-01-19T18:06:52.201Z,91.70
2023-01-19T18:18:35.018Z,91.80
2023-01-19T18:22:40.603Z,91.80
2023-01-19T18:30:54.588Z,91.90
2023-01-19T18:42:44.766Z,91.90
2023-01-19T18:46:38.325Z,91.90
2023-01-19T19:03:03.421Z,92.00
2023-01-19T19:07:14.458Z,92.00
2023-01-19T19:15:01.021Z,92.00
2023-01-19T19:19:02.401Z,92.10
2023-01-19T19:22:45.647Z,92.10
2023-01-19T19:30:46.281Z,92.30
2023-01-19T19:34:42.571Z,92.30
2023-01-19T19:46:55.051Z,92.50
2023-01-19T19:51:17.180Z,92.30
2023-01-19T19:59:28.145Z,92.40
2023-01-19T20:07:31.752Z,92.30
2023-01-19T20:11:24.892Z,92.30
2023-01-19T20:15:16.368Z,92.30
2023-01-19T20:22:56.442Z,92.20
2023-01-19T20:26:45.954Z,92.20
2023-01-19T20:34:33.559Z,92.20
2023-01-19T20:38:28.611Z,92.20
2023-01-19T20:42:17.633Z,92.10
2023-01-19T20:46:07.618Z,92.10
2023-01-19T20:49:52.540Z,92.10
2023-01-19T20:57:21.483Z,92.10
2023-01-19T21:01:14.302Z,92.00
2023-01-19T21:04:58.671Z,92.10
2023-01-19T21:08:52.702Z,92.20
2023-01-19T21:12:35.841Z,92.10
2023-01-19T21:16:18.029Z,92.10
2023-01-19T21:20:03.161Z,92.10
2023-01-19T21:23:54.324Z,92.00
2023-01-19T21:27:51.374Z,92.00
2023-01-19T21:31:35.528Z,92.00
2023-01-19T21:35:17.665Z,92.00
2023-01-19T21:39:02.612Z,92.00
2023-01-19T21:42:48.670Z,92.00
2023-01-19T21:46:31.640Z,92.00
2023-01-19T21:50:40.492Z,92.00
2023-01-19T21:54:23.707Z,92.00
2023-01-19T21:58:27.719Z,92.00
2023-01-19T22:02:26.806Z,92.00
2023-01-19T22:06:22.997Z,92.10
2023-01-19T22:10:07.504Z,92.10
2023-01-19T22:21:33.007Z,92.10
2023-01-19T22:25:15.579Z,92.10
2023-01-19T22:29:00.616Z,92.10
2023-01-19T22:32:47.540Z,92.00
2023-01-19T22:36:34.628Z,92.00
2023-01-19T22:40:17.374Z,92.00
2023-01-19T22:44:00.487Z,91.90
2023-01-19T22:47:42.584Z,91.90
2023-01-19T22:51:25.625Z,91.90
2023-01-19T22:55:07.861Z,91.90
2023-01-19T22:58:50.568Z,91.90
2023-01-19T23:02:32.788Z,91.90
2023-01-19T23:06:16.345Z,92.00
2023-01-19T23:09:58.609Z,92.00
2023-01-19T23:13:41.991Z,91.90
2023-01-19T23:17:28.350Z,92.00
2023-01-19T23:21:12.141Z,91.90
2023-01-19T23:24:59.215Z,91.90
2023-01-19T23:28:42.533Z,92.00
2023-01-19T23:32:25.780Z,92.00
2023-01-19T23:36:08.214Z,92.10
2023-01-19T23:39:50.065Z,92.10
2023-01-19T23:43:34.972Z,92.10
2023-01-19T23:47:18.384Z,92.10
2023-01-19T23:51:14.286Z,92.10
2023-01-19T23:54:57.967Z,92.10
2023-01-19T23:58:45.277Z,92.10
